• pl
  • eng

Awiacja
TAF FT 01:00 01.01.1970

TAF EPBY 211130Z 2112/2212 18014KT CAVOK
TEMPO 2112/2119 18017G28KT
BECMG 2119/2121 27014KT
TEMPO 2119/2124 27016G30KT SHRA BKN030CB
PROB30 TEMPO 2119/2121 4000 TSRA SCT010 BKN014CB
TEMPO 2206/2212 27018G30KT=

TAF EPGD 211130Z 2112/2212 19015KT CAVOK
TEMPO 2112/2119 19018G32KT
BECMG 2119/2121 27014KT
TEMPO 2119/2203 27016G30KT SHRA BKN030CB
PROB30 TEMPO 2119/2121 4000 TSRA SCT010 BKN014CB
TEMPO 2206/2212 26017G30KT SHRA BKN030CB
PROB40 TEMPO 2209/2212 4000 TSRA SCT010 BKN014CB=

TAF EPKK 211430Z 2115/2215 20010KT CAVOK
BECMG 2122/2124 26014KT BKN014
TEMPO 2200/2210 28016G28KT 4000 SHRA SCT007 BKN012CB
BECMG 2210/2213 BKN020
TEMPO 2210/2215 26015G25KT BKN015CB=

TAF EPKT 211130Z 2112/2212 17014KT CAVOK
TEMPO 2112/2115 17015G25KT
BECMG 2121/2123 27014KT BKN014
TEMPO 2121/2206 29016G28KT 4000 SHRA SCT007 BKN012CB
TEMPO 2206/2212 25015G25KT BKN017CB=

TAF EPLL 211130Z 2112/2212 20012KT CAVOK
TEMPO 2112/2122 20015G26KT
BECMG 2122/2124 30014KT
TEMPO 2123/2205 27018G34KT 4000 RA BKN009 BKN014
PROB40 TEMPO 2205/2212 27015G30KT -SHRA BKN020CB=

TAF EPMO 211130Z 2112/2212 18010KT CAVOK
BECMG 2123/2202 30014KT
TEMPO 2201/2208 27018G34KT 4000 RA BKN014
TEMPO 2208/2212 27015G25KT
PROB40 TEMPO 2209/2212 -SHRA BKN020CB=

TAF EPPO 211130Z 2112/2212 19010KT CAVOK
TEMPO 2112/2116 19018G30KT
BECMG 2115/2117 29012KT
TEMPO 2116/2203 29020G30KT SHRA BKN035CB
PROB40 TEMPO 2118/2203 VRB30G40KT 4000 TSRA BKN009 BKN025CB=

TAF EPRZ 211130Z 2112/2212 19014KT CAVOK
PROB30 TEMPO 2112/2117 19015G25KT
BECMG 2200/2203 29014KT BKN014
TEMPO 2203/2212 29015G28KT 4000 SHRA SCT007 BKN012CB=

TAF EPSC 211130Z 2112/2212 18016KT CAVOK
TEMPO 2112/2114 18020G34KT
BECMG 2114/2117 27014KT
TEMPO 2114/2120 27022G38KT SHRA BKN020CB
TEMPO 2206/2212 26014G30KT=

TAF COR EPSC 211135Z 2112/2212 18016KT CAVOK
TEMPO 2112/2114 18020G34KT
BECMG 2114/2117 27014KT
TEMPO 2114/2120 27022G38KT SHRA BKN020CB
TEMPO 2206/2212 26015G30KT=

TAF EPWA 211430Z 2115/2215 18012KT CAVOK
PROB40 TEMPO 2118/2124 20015G26KT
BECMG 2200/2202 30014KT
TEMPO 2200/2208 27018G32KT 4000 RA BKN014
PROB40 TEMPO 2200/2203 27020G42KT
TEMPO 2208/2215 27015G25KT SHRA BKN020CB=

TAF EPWR 211430Z 2115/2215 19010KT CAVOK
TEMPO 2115/2118 19018G30KT
BECMG 2117/2119 29012KT
TEMPO 2118/2123 29020G30KT 4500 SHRA BKN035CB
PROB40 TEMPO 2119/2124 VRB30G40KT 2000 TSRA BKN009 BKN025CB=
Awiacja.imgw.pl jest pogodowym serwisem informacyjnym
Instytutu Meteorologii i Gospodarki Wodnej Państwowego Instytutu Badawczego.
Copyright IMGW PIB 2009-2011© Wszelkie prawa zastrzeżone.